Airfield :







YOU CAN JOIN US ON...

 
LOGIN :

Register | Disclaimer

   EN    FR    IT 

 









Legend :    VFR   Marginal VFR   IFR   Intensive IFR   Very Intensive IFR
Visi :
Ceiling :
>= 8 km
>= 3000ft
5 to 8 km
1000 to 3000 ft
1500m to 5 km
500 to 1000 ft
800 to 1500m
200 to 500 ft
< 800m
< 200 ft
Symbols :   Thunderstorms  Fog  Heavy snow  Heavy precipitations  Wind > 20 kt






- Airport Elevation : 72 ft
- IATA code : YDF


CYDF - Deer Lake

CURRENT METAR :
  • 011700Z 04016KT 15SM OVC009 05/03 A3010 RMK SC8 SLP196

EXPIRED METARs :
  • 011600Z 03011KT 15SM OVC010 04/03 A3010 RMK SC8 SLP196
  • 011500Z 04013KT 15SM OVC009 03/02 A3011 RMK SC8 SLP197

TAF TAF CYDF
Valid from the 01 at 14:00 until the 02 at 02:00 UTC


011338Z 0114/0202 05012G22KT 2SM -RA BR OVC005
TEMPO 0114/0202 6SM -DZ BR OVC010 RMK NXT FCST BY 012000Z



MET'MAP, your aeronautical weather chart ! - Copyright ORBIFLY December 2007 - Disclaimer

ORBIFLY MET'MAP TEAM :

Programming & Development : Alexandra Zaïnal
Concept & original design : Baudouin d'Aumeries
Assistance for programming : Marc-Olivier Méhu
Technical & hardware support : Manuel Goepfert

Contact : metmap@orbifly.com




SOURCES & CREDITS :

   NOAA